Time;durP1;ratioP1;P1;durP2;ratioP2;P2;SDS_P1;SDS_P2;PMS_P1;PMS_P2;Temp;Humidity;BMP_temperature;BMP_pressure;BME280_temperature;BME280_humidity;BME280_pressure;Samples;Min_cycle;Max_cycle;Signal;HPM_P1;HPM_P2
2021/09/13 00:00:54;;;;;;;6.15;0.68;;;;;;;;;;5032034;28;20963;-72
2021/09/13 00:03:21;;;;;;;8.40;1.35;;;;;;;;;;5032107;28;20057;-72
2021/09/13 00:05:48;;;;;;;7.57;0.95;;;;;;;;;;5034917;28;20047;-71
2021/09/13 00:08:15;;;;;;;8.77;1.63;;;;;;;;;;5031876;28;20030;-72
2021/09/13 00:10:43;;;;;;;9.70;1.13;;;;;;;;;;5032307;28;20027;-72
2021/09/13 00:13:10;;;;;;;5.22;0.90;;;;;;;;;;5034428;28;20047;-72
2021/09/13 00:15:38;;;;;;;9.52;1.70;;;;;;;;;;5032285;28;20037;-73
2021/09/13 00:18:05;;;;;;;10.85;1.13;;;;;;;;;;5031851;28;20018;-73
2021/09/13 00:20:32;;;;;;;7.53;1.17;;;;;;;;;;5032361;28;20026;-73
2021/09/13 00:22:59;;;;;;;9.63;1.58;;;;;;;;;;5044873;28;20017;-73
2021/09/13 00:25:26;;;;;;;6.65;1.17;;;;;;;;;;5033694;28;20046;-73
2021/09/13 00:27:54;;;;;;;5.75;1.45;;;;;;;;;;5031760;28;20025;-73
2021/09/13 00:30:21;;;;;;;11.48;1.98;;;;;;;;;;5032109;28;20036;-72
2021/09/13 00:32:48;;;;;;;9.68;1.40;;;;;;;;;;5030579;28;20092;-73
2021/09/13 00:35:15;;;;;;;7.05;1.00;;;;;;;;;;5039515;28;20120;-73
2021/09/13 00:37:42;;;;;;;13.50;1.60;;;;;;;;;;5034539;28;20081;-72
2021/09/13 00:40:10;;;;;;;6.82;1.30;;;;;;;;;;5032426;28;20029;-73
2021/09/13 00:42:37;;;;;;;5.85;0.80;;;;;;;;;;5031881;28;20087;-73
2021/09/13 00:45:05;;;;;;;8.07;1.80;;;;;;;;;;5045163;28;20033;-73
2021/09/13 00:47:32;;;;;;;6.75;1.15;;;;;;;;;;5035225;28;20080;-73
2021/09/13 00:49:59;;;;;;;7.32;1.13;;;;;;;;;;5050958;28;20071;-73
2021/09/13 00:52:26;;;;;;;6.93;1.60;;;;;;;;;;5050363;28;20017;-72
2021/09/13 00:54:53;;;;;;;4.05;1.08;;;;;;;;;;5035264;28;20034;-74
2021/09/13 00:57:20;;;;;;;7.03;1.30;;;;;;;;;;5044129;28;20509;-72
2021/09/13 00:59:47;;;;;;;6.90;1.25;;;;;;;;;;5036369;28;20055;-73
2021/09/13 01:02:15;;;;;;;6.68;0.70;;;;;;;;;;5034755;28;20030;-73
2021/09/13 01:04:42;;;;;;;6.00;0.80;;;;;;;;;;5034768;28;20033;-73
2021/09/13 01:07:09;;;;;;;4.18;0.80;;;;;;;;;;5041781;28;20045;-72
2021/09/13 01:09:36;;;;;;;7.40;1.00;;;;;;;;;;5035968;28;20022;-72
2021/09/13 01:12:03;;;;;;;9.90;0.88;;;;;;;;;;5043431;28;20014;-72
2021/09/13 01:14:48;;;;;;;6.32;0.95;;;;;;;;;;5035149;28;20405;-72
2021/09/13 01:17:15;;;;;;;5.95;0.80;;;;;;;;;;5038989;28;20022;-72
2021/09/13 01:19:42;;;;;;;4.93;1.00;;;;;;;;;;5037115;28;20096;-72
2021/09/13 01:22:11;;;;;;;6.22;0.77;;;;;;;;;;5035979;28;20021;-73
2021/09/13 01:24:38;;;;;;;5.60;1.27;;;;;;;;;;5035229;28;20036;-72
2021/09/13 01:27:06;;;;;;;6.22;0.98;;;;;;;;;;5042013;28;20059;-72
2021/09/13 01:29:34;;;;;;;8.55;1.00;;;;;;;;;;5041202;28;20044;-72
2021/09/13 01:32:02;;;;;;;4.78;0.68;;;;;;;;;;5035006;28;20427;-72
2021/09/13 01:34:29;;;;;;;8.90;0.85;;;;;;;;;;5035407;28;20029;-73
2021/09/13 01:36:56;;;;;;;6.43;0.90;;;;;;;;;;5034500;28;20120;-72
2021/09/13 01:39:24;;;;;;;6.63;0.88;;;;;;;;;;5038098;28;20081;-72
2021/09/13 01:41:51;;;;;;;7.95;1.08;;;;;;;;;;5036366;28;20034;-72
2021/09/13 01:44:19;;;;;;;7.15;1.40;;;;;;;;;;5035961;28;20162;-72
2021/09/13 01:46:46;;;;;;;4.85;0.52;;;;;;;;;;5038591;28;20069;-71
2021/09/13 01:49:15;;;;;;;6.35;0.60;;;;;;;;;;5034132;28;20113;-72
2021/09/13 01:51:43;;;;;;;10.45;0.90;;;;;;;;;;5036762;28;20021;-72
2021/09/13 01:54:10;;;;;;;6.05;0.73;;;;;;;;;;5036555;28;20036;-72
2021/09/13 01:56:37;;;;;;;5.57;0.70;;;;;;;;;;5034504;28;20025;-70
2021/09/13 01:59:05;;;;;;;5.55;0.80;;;;;;;;;;5035779;28;20458;-72
2021/09/13 02:01:32;;;;;;;5.28;0.80;;;;;;;;;;5041272;28;20025;-70
2021/09/13 02:04:02;;;;;;;4.60;1.23;;;;;;;;;;5038312;28;20152;-71
2021/09/13 02:06:30;;;;;;;5.70;1.00;;;;;;;;;;5038133;28;20025;-72
2021/09/13 02:08:57;;;;;;;2.92;0.60;;;;;;;;;;5040434;28;20025;-72
2021/09/13 02:11:25;;;;;;;3.67;0.85;;;;;;;;;;5047041;28;20029;-72
2021/09/13 02:13:52;;;;;;;5.00;0.73;;;;;;;;;;5038657;28;20485;-73
2021/09/13 02:16:19;;;;;;;7.05;0.90;;;;;;;;;;5041169;28;20104;-71
2021/09/13 02:18:46;;;;;;;7.00;1.23;;;;;;;;;;5033685;28;20020;-72
2021/09/13 02:21:13;;;;;;;7.57;1.15;;;;;;;;;;5033505;28;20057;-72
2021/09/13 02:23:40;;;;;;;6.03;2.13;;;;;;;;;;5034329;28;20125;-73
2021/09/13 02:26:07;;;;;;;11.90;0.82;;;;;;;;;;5038931;28;20099;-71
2021/09/13 02:28:34;;;;;;;5.38;0.70;;;;;;;;;;5041106;28;20032;-72
2021/09/13 02:31:02;;;;;;;6.05;0.95;;;;;;;;;;5034581;28;20095;-71
2021/09/13 02:33:29;;;;;;;6.82;0.90;;;;;;;;;;5032729;28;20033;-72
2021/09/13 02:35:56;;;;;;;6.80;0.88;;;;;;;;;;5036272;28;20037;-72
2021/09/13 02:38:23;;;;;;;4.05;0.65;;;;;;;;;;5038517;28;20120;-71
2021/09/13 02:40:50;;;;;;;6.60;0.73;;;;;;;;;;5039797;28;20417;-71
2021/09/13 02:43:18;;;;;;;3.35;0.50;;;;;;;;;;5039556;28;20388;-71
2021/09/13 02:45:45;;;;;;;4.13;0.73;;;;;;;;;;5039281;28;20051;-72
2021/09/13 02:48:12;;;;;;;6.45;0.75;;;;;;;;;;5034504;28;20020;-71
2021/09/13 02:50:39;;;;;;;2.80;0.43;;;;;;;;;;5047806;28;20116;-71
2021/09/13 02:53:06;;;;;;;2.90;0.70;;;;;;;;;;5032113;28;20478;-71
2021/09/13 02:55:33;;;;;;;4.65;0.55;;;;;;;;;;5036983;28;20092;-72
2021/09/13 02:58:01;;;;;;;5.43;0.57;;;;;;;;;;5038486;28;20029;-72
2021/09/13 03:00:28;;;;;;;4.00;0.57;;;;;;;;;;5032599;28;20071;-71
2021/09/13 03:02:55;;;;;;;4.75;1.05;;;;;;;;;;5037548;28;20026;-71
2021/09/13 03:05:22;;;;;;;4.22;0.93;;;;;;;;;;5045278;28;20025;-72
2021/09/13 03:07:49;;;;;;;5.22;0.90;;;;;;;;;;5035372;28;20029;-71
2021/09/13 03:10:16;;;;;;;3.63;0.70;;;;;;;;;;5036698;28;20048;-71
2021/09/13 03:12:43;;;;;;;8.88;1.00;;;;;;;;;;5052198;28;20427;-71
2021/09/13 03:15:11;;;;;;;7.57;1.00;;;;;;;;;;5039136;28;20033;-72
2021/09/13 03:17:39;;;;;;;6.30;1.25;;;;;;;;;;5040654;28;20037;-72
2021/09/13 03:20:07;;;;;;;6.28;1.05;;;;;;;;;;5035795;28;20023;-71
2021/09/13 03:22:35;;;;;;;7.63;0.70;;;;;;;;;;5049272;28;20118;-71
2021/09/13 03:25:02;;;;;;;8.82;0.88;;;;;;;;;;5034227;28;20021;-70
2021/09/13 03:27:29;;;;;;;7.10;0.93;;;;;;;;;;5044733;28;20072;-71
2021/09/13 03:29:56;;;;;;;9.48;1.08;;;;;;;;;;5031733;28;20024;-71
2021/09/13 03:32:23;;;;;;;4.55;0.65;;;;;;;;;;5030997;28;20018;-71
2021/09/13 03:34:50;;;;;;;9.60;1.17;;;;;;;;;;5035622;28;20037;-71
2021/09/13 03:37:17;;;;;;;7.72;1.92;;;;;;;;;;5035044;28;20020;-70
2021/09/13 03:39:46;;;;;;;6.45;0.75;;;;;;;;;;5042035;28;20075;-70
2021/09/13 03:42:13;;;;;;;5.03;0.95;;;;;;;;;;5037536;28;20055;-70
2021/09/13 03:44:41;;;;;;;5.80;0.50;;;;;;;;;;5034483;28;20457;-72
2021/09/13 03:47:08;;;;;;;7.35;0.77;;;;;;;;;;5031494;28;20079;-71
2021/09/13 03:49:35;;;;;;;7.43;0.75;;;;;;;;;;5033294;28;20080;-70
2021/09/13 03:52:02;;;;;;;8.02;0.93;;;;;;;;;;5034063;28;20079;-71
2021/09/13 03:54:29;;;;;;;8.40;1.17;;;;;;;;;;5035759;28;20092;-71
2021/09/13 03:56:56;;;;;;;13.20;1.15;;;;;;;;;;5035367;28;20354;-71
2021/09/13 03:59:23;;;;;;;5.88;1.08;;;;;;;;;;5039741;28;20021;-70
2021/09/13 04:01:51;;;;;;;5.40;1.05;;;;;;;;;;5033746;28;20025;-72
2021/09/13 04:04:22;;;;;;;6.50;0.80;;;;;;;;;;5034705;28;20033;-71
2021/09/13 04:06:56;;;;;;;6.13;0.70;;;;;;;;;;5034103;28;20026;-72
2021/09/13 04:12:02;;;;;;;6.15;1.65;;;;;;;;;;5031754;28;20030;-69
2021/09/13 04:14:29;;;;;;;5.57;0.90;;;;;;;;;;5033721;28;20029;-70
2021/09/13 04:16:57;;;;;;;8.27;0.43;;;;;;;;;;5034838;28;20470;-70
2021/09/13 04:19:24;;;;;;;4.30;0.70;;;;;;;;;;5034661;28;20048;-70
2021/09/13 04:21:53;;;;;;;5.32;0.50;;;;;;;;;;5036685;28;20030;-70
2021/09/13 04:24:21;;;;;;;5.22;0.73;;;;;;;;;;5032849;28;20095;-70
2021/09/13 04:26:48;;;;;;;5.32;1.20;;;;;;;;;;5036990;28;20037;-70
2021/09/13 04:29:15;;;;;;;6.40;0.55;;;;;;;;;;5038266;28;20023;-71
2021/09/13 04:31:42;;;;;;;9.18;1.20;;;;;;;;;;5038559;28;20029;-71
2021/09/13 04:34:09;;;;;;;5.40;0.57;;;;;;;;;;5045566;28;20044;-71
2021/09/13 04:36:36;;;;;;;6.65;0.75;;;;;;;;;;5036375;28;20453;-70
2021/09/13 04:39:04;;;;;;;6.80;0.77;;;;;;;;;;5039017;28;20444;-70
2021/09/13 04:41:31;;;;;;;7.85;0.85;;;;;;;;;;5041900;28;20390;-70
2021/09/13 04:43:58;;;;;;;5.28;0.90;;;;;;;;;;5045591;28;20068;-70
2021/09/13 04:46:25;;;;;;;9.00;1.10;;;;;;;;;;5050050;28;20525;-70
2021/09/13 04:48:52;;;;;;;5.75;0.52;;;;;;;;;;5038524;28;20455;-71
2021/09/13 04:51:19;;;;;;;5.13;1.30;;;;;;;;;;5042650;28;20512;-70
2021/09/13 04:53:46;;;;;;;8.52;1.23;;;;;;;;;;5044361;28;20431;-70
2021/09/13 04:56:13;;;;;;;5.07;0.40;;;;;;;;;;5038511;28;20096;-70
2021/09/13 04:58:40;;;;;;;8.65;1.40;;;;;;;;;;5041287;28;20029;-71
2021/09/13 05:01:08;;;;;;;4.28;0.43;;;;;;;;;;5042907;28;20035;-70
2021/09/13 05:03:35;;;;;;;4.40;0.40;;;;;;;;;;5035645;28;20451;-70
2021/09/13 05:06:03;;;;;;;5.95;0.95;;;;;;;;;;5039826;28;20025;-71
2021/09/13 05:08:30;;;;;;;8.20;0.90;;;;;;;;;;5036284;28;20112;-71
2021/09/13 05:10:57;;;;;;;8.55;1.10;;;;;;;;;;5050458;28;20032;-72
2021/09/13 05:13:25;;;;;;;6.75;0.70;;;;;;;;;;5044512;28;20025;-72
2021/09/13 05:15:52;;;;;;;6.20;0.75;;;;;;;;;;5038394;28;20032;-71
2021/09/13 05:18:19;;;;;;;5.97;1.40;;;;;;;;;;5039707;28;20482;-69
2021/09/13 05:20:46;;;;;;;5.63;0.55;;;;;;;;;;5034296;28;20402;-70
2021/09/13 05:23:13;;;;;;;4.63;0.35;;;;;;;;;;5035362;28;20021;-70
2021/09/13 05:25:40;;;;;;;9.52;1.20;;;;;;;;;;5034467;28;20025;-69
2021/09/13 05:28:07;;;;;;;9.90;0.43;;;;;;;;;;5044874;28;20147;-70
2021/09/13 05:30:34;;;;;;;2.20;0.35;;;;;;;;;;5035113;28;20029;-70
2021/09/13 05:33:02;;;;;;;2.88;0.80;;;;;;;;;;5036011;28;20025;-70
2021/09/13 05:35:29;;;;;;;3.22;0.35;;;;;;;;;;5047234;28;20044;-69
2021/09/13 05:37:56;;;;;;;6.28;0.90;;;;;;;;;;5041733;28;20096;-70
2021/09/13 05:40:23;;;;;;;3.25;0.30;;;;;;;;;;5049511;28;20031;-70
2021/09/13 05:42:50;;;;;;;5.63;0.43;;;;;;;;;;5049511;28;20112;-69
2021/09/13 05:45:18;;;;;;;3.50;0.55;;;;;;;;;;5037906;28;20433;-70
2021/09/13 05:47:45;;;;;;;6.20;0.73;;;;;;;;;;5035886;28;20026;-71
2021/09/13 05:50:13;;;;;;;4.45;1.15;;;;;;;;;;5037972;28;20032;-71
2021/09/13 05:52:40;;;;;;;7.20;1.02;;;;;;;;;;5038020;28;20045;-70
2021/09/13 05:55:07;;;;;;;5.38;0.52;;;;;;;;;;5042245;28;20355;-70
2021/09/13 05:57:34;;;;;;;8.38;0.93;;;;;;;;;;5034162;28;20479;-70
2021/09/13 06:00:03;;;;;;;4.35;0.77;;;;;;;;;;5049869;28;20029;-70
2021/09/13 06:02:30;;;;;;;8.38;2.70;;;;;;;;;;5036834;28;20025;-70
2021/09/13 06:04:57;;;;;;;7.95;1.77;;;;;;;;;;5034102;28;20029;-71
2021/09/13 06:07:25;;;;;;;3.25;1.10;;;;;;;;;;5035125;28;20038;-71
2021/09/13 06:09:52;;;;;;;8.70;1.00;;;;;;;;;;5036941;28;20025;-70
2021/09/13 06:12:19;;;;;;;3.97;0.82;;;;;;;;;;5048804;28;20021;-70
2021/09/13 06:14:49;;;;;;;5.63;2.50;;;;;;;;;;5040443;28;20112;-70
2021/09/13 06:17:16;;;;;;;7.18;2.05;;;;;;;;;;5037833;28;20021;-71
2021/09/13 06:19:46;;;;;;;4.28;0.70;;;;;;;;;;5041295;28;20029;-70
2021/09/13 06:22:13;;;;;;;4.13;0.60;;;;;;;;;;5053645;28;20020;-70
2021/09/13 06:24:40;;;;;;;3.65;0.90;;;;;;;;;;5049510;28;20032;-70
2021/09/13 06:27:08;;;;;;;5.55;0.57;;;;;;;;;;5035470;28;20485;-72
2021/09/13 06:29:35;;;;;;;3.33;0.57;;;;;;;;;;5035278;28;20025;-71
2021/09/13 06:32:03;;;;;;;6.10;1.30;;;;;;;;;;5036913;28;20121;-70
2021/09/13 06:34:31;;;;;;;5.07;1.23;;;;;;;;;;5032733;28;20103;-71
2021/09/13 06:36:58;;;;;;;6.40;0.60;;;;;;;;;;5041733;28;20067;-70
2021/09/13 06:39:25;;;;;;;7.25;0.70;;;;;;;;;;5039607;28;20036;-70
2021/09/13 06:41:52;;;;;;;6.72;1.90;;;;;;;;;;5032536;28;20026;-70
2021/09/13 06:44:23;;;;;;;6.82;1.73;;;;;;;;;;5032434;28;20029;-70
2021/09/13 06:47:02;;;;;;;5.60;0.82;;;;;;;;;;5033747;28;20029;-70
2021/09/13 06:49:30;;;;;;;5.13;0.55;;;;;;;;;;5040434;28;20082;-70
2021/09/13 06:51:57;;;;;;;3.95;0.75;;;;;;;;;;5036933;28;20021;-69
2021/09/13 06:54:26;;;;;;;4.05;1.10;;;;;;;;;;5032898;28;20026;-69
2021/09/13 06:56:54;;;;;;;7.47;1.73;;;;;;;;;;5042959;28;20033;-70
2021/09/13 06:59:21;;;;;;;5.30;0.75;;;;;;;;;;5035205;28;20025;-69
2021/09/13 07:01:48;;;;;;;5.53;0.70;;;;;;;;;;5038601;28;20032;-70
2021/09/13 07:04:15;;;;;;;3.33;0.80;;;;;;;;;;5032341;28;20592;-70
2021/09/13 07:06:43;;;;;;;8.25;1.00;;;;;;;;;;5035383;28;20072;-70
2021/09/13 07:09:11;;;;;;;3.25;0.50;;;;;;;;;;5038111;28;20017;-70
2021/09/13 07:11:38;;;;;;;3.80;0.70;;;;;;;;;;5032341;28;20120;-70
2021/09/13 07:14:05;;;;;;;4.15;0.50;;;;;;;;;;5039362;28;20033;-69
2021/09/13 07:16:33;;;;;;;7.07;0.95;;;;;;;;;;5039788;28;20101;-70
2021/09/13 07:19:01;;;;;;;2.72;0.55;;;;;;;;;;5033219;28;20035;-70
2021/09/13 07:21:28;;;;;;;7.32;0.70;;;;;;;;;;5031620;28;20109;-70
2021/09/13 07:23:56;;;;;;;7.55;1.38;;;;;;;;;;5034540;28;20025;-70
2021/09/13 07:26:23;;;;;;;3.28;0.60;;;;;;;;;;5032829;28;20086;-70
2021/09/13 07:28:50;;;;;;;5.15;0.82;;;;;;;;;;5032031;28;20035;-69
2021/09/13 07:31:17;;;;;;;2.30;0.60;;;;;;;;;;5038256;28;20021;-69
2021/09/13 07:33:44;;;;;;;3.65;0.82;;;;;;;;;;5036658;28;20025;-69
2021/09/13 07:36:11;;;;;;;3.50;0.70;;;;;;;;;;5038445;28;20033;-70
2021/09/13 07:38:39;;;;;;;4.57;0.60;;;;;;;;;;5035571;28;20047;-70
2021/09/13 07:41:06;;;;;;;3.92;0.63;;;;;;;;;;5037735;28;20040;-70
2021/09/13 07:43:33;;;;;;;4.22;0.50;;;;;;;;;;5037240;28;20528;-70
2021/09/13 07:46:00;;;;;;;3.13;0.90;;;;;;;;;;5030588;28;20432;-70
2021/09/13 07:48:27;;;;;;;7.30;0.57;;;;;;;;;;5040994;28;20120;-70
2021/09/13 07:50:54;;;;;;;1.30;0.57;;;;;;;;;;5036437;28;20028;-70
2021/09/13 07:53:24;;;;;;;3.85;0.50;;;;;;;;;;5034034;28;20056;-70
2021/09/13 07:55:51;;;;;;;2.08;0.30;;;;;;;;;;5031014;28;20060;-71
2021/09/13 07:58:19;;;;;;;3.13;0.70;;;;;;;;;;5038042;28;20502;-70
2021/09/13 08:00:46;;;;;;;5.28;0.35;;;;;;;;;;5039336;28;20075;-69
2021/09/13 08:03:13;;;;;;;3.72;0.50;;;;;;;;;;5032333;28;20083;-70
2021/09/13 08:05:40;;;;;;;4.95;1.10;;;;;;;;;;5040906;28;20093;-69
2021/09/13 08:08:07;;;;;;;4.75;0.70;;;;;;;;;;5037506;28;20433;-70
2021/09/13 08:10:34;;;;;;;3.38;0.45;;;;;;;;;;5031932;28;20029;-69
2021/09/13 08:13:01;;;;;;;3.67;0.40;;;;;;;;;;5038752;28;20599;-70
2021/09/13 08:15:29;;;;;;;2.60;0.60;;;;;;;;;;5053993;28;20080;-68
2021/09/13 08:17:56;;;;;;;7.85;0.82;;;;;;;;;;5059706;28;20104;-68
2021/09/13 08:20:23;;;;;;;6.57;1.35;;;;;;;;;;5071396;28;20013;-68
2021/09/13 08:22:50;;;;;;;6.13;0.98;;;;;;;;;;5059388;28;20097;-67
2021/09/13 08:25:17;;;;;;;6.22;0.70;;;;;;;;;;5063718;28;20069;-67
2021/09/13 08:27:45;;;;;;;4.07;0.70;;;;;;;;;;5062461;28;20006;-67
2021/09/13 08:30:12;;;;;;;4.55;0.70;;;;;;;;;;5066475;28;20030;-67
2021/09/13 08:32:39;;;;;;;5.43;1.20;;;;;;;;;;5065172;28;20029;-68
2021/09/13 08:35:06;;;;;;;7.35;0.98;;;;;;;;;;5062229;28;20036;-69
2021/09/13 08:37:33;;;;;;;5.82;0.52;;;;;;;;;;5057353;28;20049;-68
2021/09/13 08:40:00;;;;;;;7.03;1.27;;;;;;;;;;5062731;28;20077;-68
2021/09/13 08:42:28;;;;;;;2.67;0.70;;;;;;;;;;5061427;28;20038;-68
2021/09/13 08:44:59;;;;;;;3.05;1.00;;;;;;;;;;5070879;28;20064;-69
2021/09/13 08:47:39;;;;;;;3.30;0.45;;;;;;;;;;5064779;28;20108;-68
2021/09/13 08:50:26;;;;;;;5.97;1.23;;;;;;;;;;5060105;28;20013;-68
2021/09/13 08:52:54;;;;;;;2.70;0.45;;;;;;;;;;5057099;28;20021;-68
2021/09/13 08:55:22;;;;;;;5.70;0.82;;;;;;;;;;5060296;28;20041;-69
2021/09/13 08:57:51;;;;;;;3.30;0.50;;;;;;;;;;5062927;28;20021;-68
2021/09/13 09:00:21;;;;;;;1.05;0.20;;;;;;;;;;5061850;28;20014;-68
2021/09/13 09:02:49;;;;;;;2.85;0.20;;;;;;;;;;5062541;28;20088;-68
2021/09/13 09:05:17;;;;;;;3.85;0.20;;;;;;;;;;5062202;28;20022;-67
2021/09/13 09:07:51;;;;;;;2.25;0.17;;;;;;;;;;5066509;28;20039;-67
2021/09/13 09:10:23;;;;;;;2.28;0.30;;;;;;;;;;5080470;28;20013;-67
2021/09/13 09:12:58;;;;;;;1.30;0.20;;;;;;;;;;5079682;28;20029;-68
2021/09/13 09:15:28;;;;;;;1.08;0.32;;;;;;;;;;5070485;28;20030;-67
2021/09/13 09:17:57;;;;;;;3.63;0.60;;;;;;;;;;5060391;28;20057;-68
2021/09/13 09:20:24;;;;;;;2.80;0.70;;;;;;;;;;5061349;28;20043;-68
2021/09/13 09:23:05;;;;;;;1.88;0.30;;;;;;;;;;5074651;28;20076;-68
2021/09/13 09:25:35;;;;;;;3.33;0.65;;;;;;;;;;5079585;28;20020;-67
2021/09/13 09:28:10;;;;;;;4.15;0.40;;;;;;;;;;5079535;28;20017;-67
2021/09/13 09:30:39;;;;;;;3.15;0.70;;;;;;;;;;5080120;28;20009;-67
2021/09/13 09:33:13;;;;;;;3.90;0.70;;;;;;;;;;5067128;28;20022;-67
2021/09/13 09:35:41;;;;;;;3.67;0.43;;;;;;;;;;5060003;28;20037;-67
2021/09/13 09:38:26;;;;;;;1.75;0.55;;;;;;;;;;5060103;28;20038;-67
2021/09/13 09:41:13;;;;;;;3.97;0.70;;;;;;;;;;5060021;28;20038;-68
2021/09/13 09:44:00;;;;;;;1.73;0.40;;;;;;;;;;5059893;28;20032;-67
2021/09/13 09:46:42;;;;;;;1.05;0.40;;;;;;;;;;5060325;28;20033;-68
2021/09/13 09:49:10;;;;;;;2.22;0.40;;;;;;;;;;5061289;28;20021;-67
2021/09/13 09:51:38;;;;;;;1.55;0.55;;;;;;;;;;5077828;28;20013;-67
2021/09/13 09:54:10;;;;;;;3.85;1.02;;;;;;;;;;5078856;28;20024;-67
2021/09/13 09:56:37;;;;;;;3.65;0.57;;;;;;;;;;5074955;28;20032;-67
2021/09/13 09:59:08;;;;;;;4.05;0.70;;;;;;;;;;5059140;28;20018;-67
2021/09/13 10:01:40;;;;;;;2.03;0.50;;;;;;;;;;5059622;28;20044;-67
2021/09/13 10:04:22;;;;;;;2.65;0.88;;;;;;;;;;5060472;28;20013;-67
2021/09/13 10:06:51;;;;;;;6.00;0.70;;;;;;;;;;5066041;28;20042;-67
2021/09/13 10:09:18;;;;;;;5.97;0.55;;;;;;;;;;5066920;28;20020;-67
2021/09/13 10:11:46;;;;;;;4.90;0.68;;;;;;;;;;5076540;28;20069;-67
2021/09/13 10:14:14;;;;;;;3.55;0.60;;;;;;;;;;5079189;28;20080;-70
2021/09/13 10:16:42;;;;;;;4.50;1.05;;;;;;;;;;5060720;28;20009;-67
2021/09/13 10:19:09;;;;;;;2.80;0.50;;;;;;;;;;5059421;28;20018;-68
2021/09/13 10:21:37;;;;;;;8.35;1.13;;;;;;;;;;5063576;28;20005;-67
2021/09/13 10:24:06;;;;;;;3.60;0.47;;;;;;;;;;5068555;28;20056;-67
2021/09/13 10:26:33;;;;;;;5.18;0.75;;;;;;;;;;5059039;28;20010;-67
2021/09/13 10:29:00;;;;;;;3.75;0.40;;;;;;;;;;5061909;28;20021;-67
2021/09/13 10:31:46;;;;;;;10.60;1.70;;;;;;;;;;5066787;28;20025;-67
2021/09/13 10:34:34;;;;;;;7.55;1.30;;;;;;;;;;5078949;28;20035;-68
2021/09/13 10:37:04;;;;;;;4.20;0.80;;;;;;;;;;5061800;28;20036;-66
2021/09/13 10:39:49;;;;;;;2.33;0.50;;;;;;;;;;5059257;28;20022;-68
2021/09/13 10:42:35;;;;;;;4.80;1.00;;;;;;;;;;5058859;28;20013;-67
2021/09/13 10:45:06;;;;;;;7.20;0.88;;;;;;;;;;5058642;28;20101;-68
2021/09/13 10:47:34;;;;;;;7.10;1.10;;;;;;;;;;5072536;28;20015;-68
2021/09/13 10:50:20;;;;;;;4.38;1.45;;;;;;;;;;5058684;28;20029;-67
2021/09/13 10:52:48;;;;;;;3.80;0.90;;;;;;;;;;5063843;28;20036;-68
2021/09/13 10:55:16;;;;;;;6.18;1.08;;;;;;;;;;5072008;28;20043;-69
2021/09/13 10:57:54;;;;;;;4.15;0.90;;;;;;;;;;5063914;28;20018;-68
2021/09/13 11:00:45;;;;;;;4.65;1.17;;;;;;;;;;5056657;28;20041;-69
2021/09/13 11:03:35;;;;;;;6.55;1.17;;;;;;;;;;5065734;28;20017;-68
2021/09/13 11:06:12;;;;;;;5.50;0.80;;;;;;;;;;5057168;28;20112;-68
2021/09/13 11:08:40;;;;;;;4.88;0.77;;;;;;;;;;5059937;28;20010;-68
2021/09/13 11:11:21;;;;;;;4.22;0.70;;;;;;;;;;5060937;28;20042;-68
2021/09/13 11:13:55;;;;;;;6.65;1.15;;;;;;;;;;5061859;28;20022;-68
2021/09/13 11:16:22;;;;;;;5.47;0.90;;;;;;;;;;5067815;28;20010;-68
2021/09/13 11:18:50;;;;;;;6.90;1.00;;;;;;;;;;5065001;28;20191;-68
2021/09/13 11:21:20;;;;;;;8.32;1.38;;;;;;;;;;5061954;28;20021;-68
2021/09/13 11:23:48;;;;;;;5.50;0.63;;;;;;;;;;5072537;28;20050;-68
2021/09/13 11:26:19;;;;;;;6.13;0.90;;;;;;;;;;5064463;28;20024;-68
2021/09/13 11:29:12;;;;;;;7.68;0.88;;;;;;;;;;5060974;28;20040;-68
2021/09/13 11:32:15;;;;;;;7.43;1.10;;;;;;;;;;5065560;28;20048;-69
2021/09/13 11:34:43;;;;;;;6.07;1.25;;;;;;;;;;5087630;28;20025;-68
2021/09/13 11:37:30;;;;;;;5.13;1.00;;;;;;;;;;5073113;28;20136;-68
2021/09/13 11:40:00;;;;;;;9.85;1.67;;;;;;;;;;5065120;28;20016;-68
2021/09/13 11:42:32;;;;;;;6.68;1.00;;;;;;;;;;5061745;28;20021;-68
2021/09/13 11:45:02;;;;;;;5.13;0.73;;;;;;;;;;5064909;28;20021;-69
2021/09/13 11:47:33;;;;;;;7.75;2.30;;;;;;;;;;5066149;28;20020;-69
2021/09/13 11:50:01;;;;;;;10.25;1.15;;;;;;;;;;5064860;28;20032;-69
2021/09/13 11:52:29;;;;;;;10.77;1.25;;;;;;;;;;5063650;28;20029;-71
2021/09/13 11:55:06;;;;;;;5.53;1.17;;;;;;;;;;5073659;28;20044;-70
2021/09/13 11:57:34;;;;;;;7.95;1.95;;;;;;;;;;5061912;28;20025;-69
2021/09/13 12:00:02;;;;;;;4.35;0.88;;;;;;;;;;5057790;28;20033;-69
2021/09/13 12:02:30;;;;;;;8.13;1.38;;;;;;;;;;5067062;28;20172;-69
2021/09/13 12:04:58;;;;;;;3.97;0.60;;;;;;;;;;5065956;28;20045;-68
2021/09/13 12:07:25;;;;;;;5.53;0.82;;;;;;;;;;5062217;28;20052;-68
2021/09/13 12:09:53;;;;;;;5.50;0.93;;;;;;;;;;5062981;28;20033;-68
2021/09/13 12:12:22;;;;;;;9.18;1.13;;;;;;;;;;5065373;28;20048;-68
2021/09/13 12:14:50;;;;;;;5.13;0.60;;;;;;;;;;5067771;28;20037;-68
2021/09/13 12:17:22;;;;;;;5.35;0.80;;;;;;;;;;5059615;28;20036;-68
2021/09/13 12:19:50;;;;;;;2.78;0.50;;;;;;;;;;5062670;28;20018;-69
2021/09/13 12:22:18;;;;;;;3.78;0.50;;;;;;;;;;5062822;28;20033;-69
2021/09/13 12:24:47;;;;;;;3.58;0.63;;;;;;;;;;5062245;28;20026;-69
2021/09/13 12:27:19;;;;;;;3.55;0.50;;;;;;;;;;5061886;28;20072;-69
2021/09/13 12:29:54;;;;;;;6.22;0.60;;;;;;;;;;5064978;28;20126;-67
2021/09/13 12:32:22;;;;;;;4.25;1.00;;;;;;;;;;5066127;28;20037;-68
2021/09/13 12:34:56;;;;;;;6.47;0.77;;;;;;;;;;5071568;28;20656;-68
2021/09/13 12:37:33;;;;;;;3.35;0.35;;;;;;;;;;5057959;28;20063;-69
2021/09/13 12:40:01;;;;;;;6.13;0.43;;;;;;;;;;5069641;28;20032;-68
2021/09/13 12:42:29;;;;;;;5.38;0.40;;;;;;;;;;5062423;28;20009;-68
2021/09/13 12:44:59;;;;;;;1.65;0.40;;;;;;;;;;5074456;28;20022;-68
2021/09/13 12:47:27;;;;;;;5.68;0.50;;;;;;;;;;5065386;28;20044;-67
2021/09/13 12:49:54;;;;;;;5.25;0.57;;;;;;;;;;5066616;28;20029;-68
2021/09/13 12:52:21;;;;;;;3.50;0.57;;;;;;;;;;5063275;28;20022;-68
2021/09/13 12:54:49;;;;;;;5.60;0.88;;;;;;;;;;5066303;28;20032;-67
2021/09/13 12:57:33;;;;;;;3.72;0.43;;;;;;;;;;5065696;28;20017;-67
2021/09/13 13:00:00;;;;;;;;;;;;;;;;;;5061263;28;20024;-68
2021/09/13 13:02:27;;;;;;;2.72;0.30;;;;;;;;;;5066756;28;19968;-67
2021/09/13 13:04:54;;;;;;;2.95;0.52;;;;;;;;;;5061987;28;20071;-67
2021/09/13 13:07:21;;;;;;;4.22;0.30;;;;;;;;;;5067062;28;20010;-68
2021/09/13 13:09:48;;;;;;;1.95;0.63;;;;;;;;;;5075315;28;20033;-68
2021/09/13 13:12:15;;;;;;;4.97;0.30;;;;;;;;;;5062835;28;20033;-68
2021/09/13 13:14:43;;;;;;;3.80;0.35;;;;;;;;;;5063655;28;20017;-67
2021/09/13 13:17:10;;;;;;;1.95;0.30;;;;;;;;;;5063125;28;20045;-68
2021/09/13 13:19:37;;;;;;;4.05;0.40;;;;;;;;;;5062196;28;20036;-68
2021/09/13 13:22:05;;;;;;;3.90;0.88;;;;;;;;;;5062798;28;20025;-68
2021/09/13 13:24:33;;;;;;;6.78;1.15;;;;;;;;;;5056291;28;20009;-68
2021/09/13 13:27:00;;;;;;;5.20;0.98;;;;;;;;;;5061701;28;20042;-68
2021/09/13 13:29:27;;;;;;;6.32;0.77;;;;;;;;;;5057237;28;20033;-69
2021/09/13 13:31:58;;;;;;;1.63;0.30;;;;;;;;;;5058749;28;20026;-68
2021/09/13 13:34:28;;;;;;;5.72;0.40;;;;;;;;;;5063412;28;20016;-68
2021/09/13 13:36:55;;;;;;;3.95;0.40;;;;;;;;;;5061000;28;20036;-68
2021/09/13 13:39:22;;;;;;;3.42;0.60;;;;;;;;;;5069903;28;20056;-69
2021/09/13 13:41:49;;;;;;;4.03;0.40;;;;;;;;;;5065653;28;20056;-68
2021/09/13 13:44:16;;;;;;;9.57;0.50;;;;;;;;;;5057733;28;20070;-69
2021/09/13 13:46:43;;;;;;;4.60;0.63;;;;;;;;;;5058230;28;20034;-69
2021/09/13 13:49:10;;;;;;;5.68;0.40;;;;;;;;;;5059814;28;20024;-67
2021/09/13 13:51:37;;;;;;;6.20;1.02;;;;;;;;;;5062463;28;20009;-66
2021/09/13 13:54:07;;;;;;;3.35;0.45;;;;;;;;;;5042200;28;20025;-68
2021/09/13 13:56:35;;;;;;;4.63;0.52;;;;;;;;;;5048758;28;20071;-69
2021/09/13 13:59:02;;;;;;;7.00;0.77;;;;;;;;;;5050616;28;20040;-69
2021/09/13 14:01:31;;;;;;;7.55;0.95;;;;;;;;;;5045590;28;20040;-68
2021/09/13 14:03:58;;;;;;;3.60;0.60;;;;;;;;;;5061404;28;20021;-68
2021/09/13 14:06:25;;;;;;;4.57;0.82;;;;;;;;;;5055109;28;20033;-70
2021/09/13 14:08:52;;;;;;;4.65;0.55;;;;;;;;;;5047563;28;20036;-70
2021/09/13 14:11:19;;;;;;;7.05;0.90;;;;;;;;;;5056201;28;20047;-69
2021/09/13 14:13:47;;;;;;;9.63;0.65;;;;;;;;;;5058665;28;20022;-69
2021/09/13 14:16:14;;;;;;;5.95;0.50;;;;;;;;;;5063201;28;20017;-69
2021/09/13 14:18:41;;;;;;;4.28;0.35;;;;;;;;;;5056967;28;20021;-69
2021/09/13 14:21:12;;;;;;;4.10;0.65;;;;;;;;;;5060561;28;20029;-69
2021/09/13 14:23:40;;;;;;;6.97;0.40;;;;;;;;;;5060902;28;20017;-70
2021/09/13 14:26:07;;;;;;;6.50;0.98;;;;;;;;;;5055783;28;20025;-69
2021/09/13 14:28:34;;;;;;;3.78;0.50;;;;;;;;;;5059803;28;20512;-70
2021/09/13 14:31:01;;;;;;;6.85;0.50;;;;;;;;;;5062090;28;20033;-69
2021/09/13 14:33:28;;;;;;;6.22;0.77;;;;;;;;;;5050024;28;20040;-69
2021/09/13 14:35:55;;;;;;;8.60;1.23;;;;;;;;;;5051251;28;20037;-69
2021/09/13 14:38:22;;;;;;;7.40;1.17;;;;;;;;;;5042267;28;20091;-71
2021/09/13 14:40:50;;;;;;;9.23;1.20;;;;;;;;;;5033498;28;20470;-71
2021/09/13 14:43:17;;;;;;;6.40;1.10;;;;;;;;;;5041315;28;20039;-71
2021/09/13 14:45:44;;;;;;;4.60;0.80;;;;;;;;;;5045028;28;20017;-70
2021/09/13 14:48:11;;;;;;;7.68;1.20;;;;;;;;;;5043883;28;20075;-70
2021/09/13 14:50:38;;;;;;;5.60;0.68;;;;;;;;;;5050848;28;20048;-71
2021/09/13 14:53:05;;;;;;;5.18;0.60;;;;;;;;;;5036971;28;20052;-71
2021/09/13 14:55:33;;;;;;;9.27;0.85;;;;;;;;;;5043279;28;20422;-69